createdAt,value
2022-10-06T00:00:18.265Z,1011.51
2022-10-06T00:00:39.361Z,1011.53
2022-10-06T00:01:00.482Z,1011.53
2022-10-06T00:01:21.570Z,1011.51
2022-10-06T00:01:42.847Z,1011.49
2022-10-06T00:02:03.901Z,1011.49
2022-10-06T00:02:29.941Z,1011.49
2022-10-06T00:02:55.894Z,1011.49
2022-10-06T00:03:16.990Z,1011.49
2022-10-06T00:03:38.085Z,1011.51
2022-10-06T00:04:04.066Z,1011.49
2022-10-06T00:04:30.053Z,1011.53
2022-10-06T00:04:51.135Z,1011.53
2022-10-06T00:05:17.114Z,1011.53
2022-10-06T00:05:38.215Z,1011.57
2022-10-06T00:06:04.166Z,1011.53
2022-10-06T00:06:25.216Z,1011.51
2022-10-06T00:06:46.387Z,1011.51
2022-10-06T00:07:07.448Z,1011.53
2022-10-06T00:07:28.511Z,1011.55
2022-10-06T00:07:49.560Z,1011.55
2022-10-06T00:08:10.609Z,1011.55
2022-10-06T00:08:31.898Z,1011.53
2022-10-06T00:08:52.948Z,1011.55
2022-10-06T00:09:13.997Z,1011.53
2022-10-06T00:09:35.057Z,1011.57
2022-10-06T00:09:56.114Z,1011.55
2022-10-06T00:10:17.158Z,1011.55
2022-10-06T00:10:38.224Z,1011.55
2022-10-06T00:10:59.262Z,1011.55
2022-10-06T00:11:20.306Z,1011.51
2022-10-06T00:11:41.356Z,1011.57
2022-10-06T00:12:02.442Z,1011.57
2022-10-06T00:12:23.483Z,1011.55
2022-10-06T00:12:44.545Z,1011.57
2022-10-06T00:13:05.596Z,1011.57
2022-10-06T00:13:26.649Z,1011.57
2022-10-06T00:13:47.707Z,1011.59
2022-10-06T00:14:08.755Z,1011.59
2022-10-06T00:14:29.814Z,1011.59
2022-10-06T00:14:50.877Z,1011.57
2022-10-06T00:15:11.941Z,1011.57
2022-10-06T00:15:33.064Z,1011.57
2022-10-06T00:15:54.189Z,1011.59
2022-10-06T00:16:15.330Z,1011.57
2022-10-06T00:16:36.472Z,1011.57
2022-10-06T00:16:57.523Z,1011.55
2022-10-06T00:17:18.591Z,1011.59
2022-10-06T00:17:39.649Z,1011.55
2022-10-06T00:18:00.735Z,1011.57
2022-10-06T00:18:21.762Z,1011.57
2022-10-06T00:18:42.806Z,1011.57
2022-10-06T00:19:03.860Z,1011.59
2022-10-06T00:19:24.921Z,1011.55
2022-10-06T00:19:45.973Z,1011.55
2022-10-06T00:20:07.023Z,1011.55
2022-10-06T00:20:28.073Z,1011.55
2022-10-06T00:20:49.124Z,1011.51
2022-10-06T00:21:10.176Z,1011.53
2022-10-06T00:21:31.230Z,1011.53
2022-10-06T00:21:52.321Z,1011.55
2022-10-06T00:22:13.365Z,1011.53
2022-10-06T00:22:34.419Z,1011.55
2022-10-06T00:22:55.482Z,1011.55
2022-10-06T00:23:16.535Z,1011.57
2022-10-06T00:23:37.603Z,1011.59
2022-10-06T00:23:58.637Z,1011.57
2022-10-06T00:24:19.695Z,1011.59
2022-10-06T00:24:40.750Z,1011.59
2022-10-06T00:25:01.797Z,1011.61
2022-10-06T00:25:22.851Z,1011.61
2022-10-06T00:25:43.919Z,1011.61
2022-10-06T00:26:04.949Z,1011.63
2022-10-06T00:26:26.010Z,1011.63
2022-10-06T00:26:47.060Z,1011.63
2022-10-06T00:27:08.131Z,1011.63
2022-10-06T00:27:29.186Z,1011.59
2022-10-06T00:27:50.230Z,1011.61
2022-10-06T00:28:11.354Z,1011.55
2022-10-06T00:28:33.216Z,1011.53
2022-10-06T00:28:54.612Z,1011.53
2022-10-06T00:29:15.670Z,1011.55
2022-10-06T00:29:36.721Z,1011.55
2022-10-06T00:29:57.785Z,1011.55
2022-10-06T00:30:18.839Z,1011.57
2022-10-06T00:30:39.903Z,1011.57
2022-10-06T00:31:00.997Z,1011.57
2022-10-06T00:31:22.071Z,1011.57
2022-10-06T00:31:43.094Z,1011.53
2022-10-06T00:32:04.156Z,1011.55
2022-10-06T00:32:25.232Z,1011.53
2022-10-06T00:32:46.280Z,1011.53
2022-10-06T00:33:07.312Z,1011.51
2022-10-06T00:33:28.375Z,1011.57
2022-10-06T00:33:49.419Z,1011.57
2022-10-06T00:34:10.482Z,1011.57
2022-10-06T00:34:31.521Z,1011.57
2022-10-06T00:34:52.595Z,1011.61
2022-10-06T00:35:13.651Z,1011.61
2022-10-06T00:35:34.739Z,1011.61
2022-10-06T00:35:55.775Z,1011.61
2022-10-06T00:36:16.830Z,1011.63
2022-10-06T00:36:37.883Z,1011.63
2022-10-06T00:36:58.925Z,1011.61
2022-10-06T00:37:19.981Z,1011.63
2022-10-06T00:37:41.051Z,1011.59
2022-10-06T00:38:02.097Z,1011.65
2022-10-06T00:38:23.149Z,1011.63
2022-10-06T00:38:44.203Z,1011.63
2022-10-06T00:39:05.252Z,1011.61
2022-10-06T00:39:26.299Z,1011.61
2022-10-06T00:39:47.352Z,1011.63
2022-10-06T00:40:08.401Z,1011.65
2022-10-06T00:40:29.449Z,1011.65
2022-10-06T00:40:50.535Z,1011.63
2022-10-06T00:41:11.570Z,1011.67
2022-10-06T00:41:32.618Z,1011.65
2022-10-06T00:41:53.679Z,1011.69
2022-10-06T00:42:14.727Z,1011.67
2022-10-06T00:42:35.785Z,1011.69
2022-10-06T00:42:56.849Z,1011.67
2022-10-06T00:43:17.897Z,1011.70
2022-10-06T00:43:38.954Z,1011.70
2022-10-06T00:44:00.012Z,1011.72
2022-10-06T00:44:21.066Z,1011.72
2022-10-06T00:44:42.124Z,1011.69
2022-10-06T00:45:03.174Z,1011.70
2022-10-06T00:45:24.223Z,1011.70
2022-10-06T00:45:45.282Z,1011.72
2022-10-06T00:46:06.357Z,1011.70
2022-10-06T00:46:27.424Z,1011.70
2022-10-06T00:46:48.506Z,1011.74
2022-10-06T00:47:09.554Z,1011.76
2022-10-06T00:47:30.615Z,1011.72
2022-10-06T00:47:51.660Z,1011.76
2022-10-06T00:48:12.739Z,1011.74
2022-10-06T00:48:33.796Z,1011.76
2022-10-06T00:48:54.841Z,1011.78
2022-10-06T00:49:15.899Z,1011.76
2022-10-06T00:49:36.937Z,1011.78
2022-10-06T00:49:57.987Z,1011.80
2022-10-06T00:50:19.046Z,1011.78
2022-10-06T00:50:40.096Z,1011.78
2022-10-06T00:51:01.144Z,1011.80
2022-10-06T00:51:22.202Z,1011.80
2022-10-06T00:51:43.248Z,1011.80
2022-10-06T00:52:04.299Z,1011.82
2022-10-06T00:52:25.364Z,1011.82
2022-10-06T00:52:46.427Z,1011.84
2022-10-06T00:53:07.473Z,1011.86
2022-10-06T00:53:28.622Z,1011.86
2022-10-06T00:53:49.674Z,1011.86
2022-10-06T00:54:10.723Z,1011.90
2022-10-06T00:54:31.799Z,1011.90
2022-10-06T00:54:52.835Z,1011.88
2022-10-06T00:55:13.893Z,1011.88
2022-10-06T00:55:34.947Z,1011.88
2022-10-06T00:55:56.028Z,1011.88
2022-10-06T00:56:17.057Z,1011.90
2022-10-06T00:56:38.127Z,1011.94
2022-10-06T00:56:59.305Z,1011.94
2022-10-06T00:57:20.364Z,1011.94
2022-10-06T00:57:41.401Z,1011.94
2022-10-06T00:58:02.457Z,1011.96
2022-10-06T00:58:23.525Z,1011.98
2022-10-06T00:58:44.561Z,1011.98
2022-10-06T00:59:05.612Z,1011.98
2022-10-06T00:59:26.689Z,1011.96
2022-10-06T00:59:47.741Z,1011.98
2022-10-06T01:00:08.785Z,1011.98
2022-10-06T01:00:29.841Z,1011.98
2022-10-06T01:00:50.898Z,1011.96
2022-10-06T01:01:12.000Z,1011.98
2022-10-06T01:01:33.102Z,1011.98
2022-10-06T01:01:54.137Z,1012.02
2022-10-06T01:02:15.378Z,1012.00
2022-10-06T01:02:36.470Z,1012.02
2022-10-06T01:02:57.554Z,1012.02
2022-10-06T01:03:18.574Z,1012.00
2022-10-06T01:03:39.632Z,1012.02
2022-10-06T01:04:00.678Z,1012.04
2022-10-06T01:04:21.793Z,1012.04
2022-10-06T01:04:42.814Z,1012.06
2022-10-06T01:05:03.868Z,1012.06
2022-10-06T01:05:24.915Z,1012.10
2022-10-06T01:05:45.975Z,1012.08
2022-10-06T01:06:07.020Z,1012.10
2022-10-06T01:06:28.088Z,1012.10
2022-10-06T01:06:49.134Z,1012.10
2022-10-06T01:07:10.199Z,1012.12
2022-10-06T01:07:31.372Z,1012.12
2022-10-06T01:07:52.421Z,1012.14
2022-10-06T01:08:13.481Z,1012.16
2022-10-06T01:08:34.528Z,1012.17
2022-10-06T01:08:55.588Z,1012.16
2022-10-06T01:09:16.643Z,1012.17
2022-10-06T01:09:37.695Z,1012.19
2022-10-06T01:09:58.764Z,1012.17
2022-10-06T01:10:19.799Z,1012.17
2022-10-06T01:10:40.846Z,1012.16
2022-10-06T01:11:01.929Z,1012.23
2022-10-06T01:11:22.961Z,1012.16
2022-10-06T01:11:44.019Z,1012.16
2022-10-06T01:12:05.075Z,1012.21
2022-10-06T01:12:26.120Z,1012.23
2022-10-06T01:12:47.292Z,1012.21
2022-10-06T01:13:08.349Z,1012.23
2022-10-06T01:13:29.406Z,1012.25
2022-10-06T01:13:50.458Z,1012.23
2022-10-06T01:14:11.509Z,1012.25
2022-10-06T01:14:32.560Z,1012.25
2022-10-06T01:14:53.617Z,1012.23
2022-10-06T01:15:14.663Z,1012.17
2022-10-06T01:15:35.736Z,1012.19
2022-10-06T01:15:56.865Z,1012.17
2022-10-06T01:16:17.959Z,1012.17
2022-10-06T01:16:38.993Z,1012.19
2022-10-06T01:17:00.049Z,1012.19
2022-10-06T01:17:21.222Z,1012.17
2022-10-06T01:17:42.273Z,1012.21
2022-10-06T01:18:03.322Z,1012.21
2022-10-06T01:18:24.375Z,1012.17
2022-10-06T01:18:45.430Z,1012.17
2022-10-06T01:19:06.488Z,1012.17
2022-10-06T01:19:27.542Z,1012.19
2022-10-06T01:19:48.601Z,1012.21
2022-10-06T01:20:09.661Z,1012.19
2022-10-06T01:20:30.736Z,1012.19
2022-10-06T01:20:51.773Z,1012.21
2022-10-06T01:21:12.828Z,1012.21
2022-10-06T01:21:33.900Z,1012.21
2022-10-06T01:21:54.959Z,1012.23
2022-10-06T01:22:16.107Z,1012.23
2022-10-06T01:22:37.156Z,1012.23
2022-10-06T01:22:58.202Z,1012.25
2022-10-06T01:23:19.257Z,1012.23
2022-10-06T01:23:40.302Z,1012.25
2022-10-06T01:24:01.358Z,1012.27
2022-10-06T01:24:22.421Z,1012.27
2022-10-06T01:24:43.467Z,1012.29
2022-10-06T01:25:04.521Z,1012.31
2022-10-06T01:25:25.573Z,1012.27
2022-10-06T01:25:46.622Z,1012.27
2022-10-06T01:26:07.692Z,1012.27
2022-10-06T01:26:28.728Z,1012.29
2022-10-06T01:26:49.769Z,1012.29
2022-10-06T01:27:10.822Z,1012.29
2022-10-06T01:27:31.989Z,1012.31
2022-10-06T01:27:53.048Z,1012.29
2022-10-06T01:28:14.170Z,1012.33
2022-10-06T01:28:35.250Z,1012.31
2022-10-06T01:28:56.299Z,1012.35
2022-10-06T01:29:17.355Z,1012.35
2022-10-06T01:29:38.425Z,1012.35
2022-10-06T01:29:59.464Z,1012.35
2022-10-06T01:30:20.528Z,1012.35
2022-10-06T01:30:41.638Z,1012.31
2022-10-06T01:31:02.830Z,1012.31
2022-10-06T01:31:23.963Z,1012.33
2022-10-06T01:31:44.983Z,1012.33
2022-10-06T01:32:06.034Z,1012.35
2022-10-06T01:32:27.085Z,1012.33
2022-10-06T01:32:48.164Z,1012.35
2022-10-06T01:33:09.220Z,1012.37
2022-10-06T01:33:30.285Z,1012.35
2022-10-06T01:33:51.333Z,1012.33
2022-10-06T01:34:12.385Z,1012.33
2022-10-06T01:34:33.431Z,1012.39
2022-10-06T01:34:54.482Z,1012.41
2022-10-06T01:35:15.534Z,1012.37
2022-10-06T01:35:36.588Z,1012.39
2022-10-06T01:35:57.633Z,1012.39
2022-10-06T01:36:18.690Z,1012.41
2022-10-06T01:36:39.740Z,1012.39
2022-10-06T01:37:00.796Z,1012.41
2022-10-06T01:37:21.853Z,1012.39
2022-10-06T01:37:42.911Z,1012.43
2022-10-06T01:38:03.991Z,1012.41
2022-10-06T01:38:25.107Z,1012.41
2022-10-06T01:38:46.143Z,1012.41
2022-10-06T01:39:07.195Z,1012.41
2022-10-06T01:39:28.235Z,1012.41
2022-10-06T01:39:49.290Z,1012.41
2022-10-06T01:40:10.349Z,1012.41
2022-10-06T01:40:31.408Z,1012.43
2022-10-06T01:40:52.457Z,1012.39
2022-10-06T01:41:13.536Z,1012.41
2022-10-06T01:41:34.574Z,1012.43
2022-10-06T01:41:55.632Z,1012.43
2022-10-06T01:42:16.684Z,1012.43
2022-10-06T01:42:37.730Z,1012.43
2022-10-06T01:42:58.786Z,1012.43
2022-10-06T01:43:19.856Z,1012.47
2022-10-06T01:43:40.916Z,1012.45
2022-10-06T01:44:01.963Z,1012.45
2022-10-06T01:44:23.018Z,1012.45
2022-10-06T01:44:44.070Z,1012.45
2022-10-06T01:45:05.135Z,1012.43
2022-10-06T01:45:26.196Z,1012.41
2022-10-06T01:45:47.258Z,1012.41
2022-10-06T01:46:08.376Z,1012.41
2022-10-06T01:46:29.508Z,1012.41
2022-10-06T01:46:50.580Z,1012.43
2022-10-06T01:47:11.601Z,1012.43
2022-10-06T01:47:32.653Z,1012.45
2022-10-06T01:47:53.709Z,1012.43
2022-10-06T01:48:14.757Z,1012.45
2022-10-06T01:48:35.818Z,1012.47
2022-10-06T01:48:56.879Z,1012.43
2022-10-06T01:49:17.931Z,1012.47
2022-10-06T01:49:38.973Z,1012.49
2022-10-06T01:50:00.046Z,1012.47
2022-10-06T01:50:21.099Z,1012.47
2022-10-06T01:50:42.143Z,1012.49
2022-10-06T01:51:03.197Z,1012.47
2022-10-06T01:51:24.253Z,1012.51
2022-10-06T01:51:45.310Z,1012.51
2022-10-06T01:52:06.374Z,1012.49
2022-10-06T01:52:27.426Z,1012.51
2022-10-06T01:52:48.494Z,1012.49
2022-10-06T01:53:09.566Z,1012.55
2022-10-06T01:53:30.613Z,1012.53
2022-10-06T01:53:51.667Z,1012.53
2022-10-06T01:54:12.715Z,1012.51
2022-10-06T01:54:33.791Z,1012.53
2022-10-06T01:54:54.832Z,1012.57
2022-10-06T01:55:15.888Z,1012.57
2022-10-06T01:55:36.934Z,1012.55
2022-10-06T01:55:57.983Z,1012.55
2022-10-06T01:56:19.044Z,1012.55
2022-10-06T01:56:40.077Z,1012.55
2022-10-06T01:57:01.136Z,1012.53
2022-10-06T01:57:22.187Z,1012.57
2022-10-06T01:57:43.236Z,1012.57
2022-10-06T01:58:04.309Z,1012.53
2022-10-06T01:58:25.663Z,1012.55
2022-10-06T01:58:46.883Z,1012.55
2022-10-06T01:59:07.920Z,1012.61
2022-10-06T01:59:28.969Z,1012.59
2022-10-06T01:59:54.582Z,1012.57
2022-10-06T02:00:16.992Z,1012.59
2022-10-06T02:00:38.032Z,1012.63
2022-10-06T02:00:59.100Z,1012.63
2022-10-06T02:01:20.200Z,1012.61
2022-10-06T02:01:41.282Z,1012.61
2022-10-06T02:02:02.376Z,1012.63
2022-10-06T02:02:23.460Z,1012.63
2022-10-06T02:02:44.512Z,1012.63
2022-10-06T02:03:05.570Z,1012.61
2022-10-06T02:03:26.630Z,1012.64
2022-10-06T02:03:47.699Z,1012.64
2022-10-06T02:04:08.805Z,1012.66
2022-10-06T02:04:29.853Z,1012.68
2022-10-06T02:04:50.922Z,1012.70
2022-10-06T02:05:11.978Z,1012.74
2022-10-06T02:05:33.036Z,1012.74
2022-10-06T02:05:54.115Z,1012.74
2022-10-06T02:06:15.187Z,1012.74
2022-10-06T02:06:36.300Z,1012.74
2022-10-06T02:06:57.348Z,1012.76
2022-10-06T02:07:18.398Z,1012.76
2022-10-06T02:07:39.455Z,1012.76
2022-10-06T02:08:00.507Z,1012.78
2022-10-06T02:08:21.706Z,1012.80
2022-10-06T02:08:42.755Z,1012.80
2022-10-06T02:09:03.817Z,1012.82
2022-10-06T02:09:24.863Z,1012.82
2022-10-06T02:09:45.915Z,1012.86
2022-10-06T02:10:06.980Z,1012.86
2022-10-06T02:10:28.015Z,1012.86
2022-10-06T02:10:49.075Z,1012.84
2022-10-06T02:11:10.123Z,1012.86
2022-10-06T02:11:31.180Z,1012.86
2022-10-06T02:11:52.229Z,1012.90
2022-10-06T02:12:13.277Z,1012.88
2022-10-06T02:12:34.338Z,1012.86
2022-10-06T02:12:55.385Z,1012.88
2022-10-06T02:13:16.435Z,1012.88
2022-10-06T02:13:37.499Z,1012.88
2022-10-06T02:13:58.549Z,1012.86
2022-10-06T02:14:19.607Z,1012.88
2022-10-06T02:14:40.670Z,1012.88
2022-10-06T02:15:01.722Z,1012.90
2022-10-06T02:15:22.766Z,1012.92
2022-10-06T02:15:43.862Z,1012.94
2022-10-06T02:16:04.998Z,1012.92
2022-10-06T02:16:26.106Z,1012.90
2022-10-06T02:16:47.124Z,1012.92
2022-10-06T02:17:08.178Z,1012.98
2022-10-06T02:17:29.238Z,1013.00
2022-10-06T02:17:50.289Z,1012.98
2022-10-06T02:18:11.378Z,1013.02
2022-10-06T02:18:32.678Z,1013.02
2022-10-06T02:18:53.755Z,1012.98
2022-10-06T02:19:14.807Z,1013.00
2022-10-06T02:19:35.857Z,1013.02
2022-10-06T02:19:56.918Z,1013.00
2022-10-06T02:20:17.970Z,1013.02
2022-10-06T02:20:39.023Z,1013.00
2022-10-06T02:21:00.076Z,1013.12
2022-10-06T02:21:21.127Z,1013.10
2022-10-06T02:21:42.187Z,1013.02
2022-10-06T02:22:03.247Z,1013.10
2022-10-06T02:22:24.291Z,1013.10
2022-10-06T02:22:45.352Z,1013.02
2022-10-06T02:23:06.410Z,1013.10
2022-10-06T02:23:27.491Z,1013.10
2022-10-06T02:23:48.547Z,1013.12
2022-10-06T02:24:09.597Z,1013.12
2022-10-06T02:24:30.638Z,1013.16
2022-10-06T02:24:51.701Z,1013.16
2022-10-06T02:25:12.748Z,1013.16
2022-10-06T02:25:33.797Z,1013.20
2022-10-06T02:25:54.847Z,1013.22
2022-10-06T02:26:15.897Z,1013.22
2022-10-06T02:26:36.966Z,1013.22
2022-10-06T02:26:57.997Z,1013.24
2022-10-06T02:27:19.051Z,1013.26
2022-10-06T02:27:40.112Z,1013.28
2022-10-06T02:28:01.185Z,1013.30
2022-10-06T02:28:22.249Z,1013.32
2022-10-06T02:28:43.464Z,1013.36
2022-10-06T02:29:04.506Z,1013.36
2022-10-06T02:29:25.550Z,1013.42
2022-10-06T02:29:46.596Z,1013.44
2022-10-06T02:30:07.655Z,1013.46
2022-10-06T02:30:28.704Z,1013.48
2022-10-06T02:30:49.830Z,1013.48
2022-10-06T02:31:10.934Z,1013.50
2022-10-06T02:31:31.997Z,1013.52
2022-10-06T02:31:53.055Z,1013.52
2022-10-06T02:32:14.104Z,1013.56
2022-10-06T02:32:35.165Z,1013.57
2022-10-06T02:32:56.211Z,1013.59
2022-10-06T02:33:17.309Z,1013.61
2022-10-06T02:33:38.391Z,1013.61
2022-10-06T02:33:59.450Z,1013.63
2022-10-06T02:34:20.495Z,1013.63
2022-10-06T02:34:41.546Z,1013.61
2022-10-06T02:35:02.608Z,1013.63
2022-10-06T02:35:23.656Z,1013.63
2022-10-06T02:35:44.714Z,1013.65
2022-10-06T02:36:05.779Z,1013.65
2022-10-06T02:36:26.841Z,1013.63
2022-10-06T02:36:47.871Z,1013.65
2022-10-06T02:37:08.927Z,1013.67
2022-10-06T02:37:29.981Z,1013.67
2022-10-06T02:37:51.024Z,1013.63
2022-10-06T02:38:12.072Z,1013.67
2022-10-06T02:38:33.141Z,1013.63
2022-10-06T02:38:54.196Z,1013.65
2022-10-06T02:39:15.242Z,1013.63
2022-10-06T02:39:36.288Z,1013.63
2022-10-06T02:39:57.353Z,1013.63
2022-10-06T02:40:18.406Z,1013.67
2022-10-06T02:40:39.446Z,1013.67
2022-10-06T02:41:00.504Z,1013.65
2022-10-06T02:41:21.562Z,1013.67
2022-10-06T02:41:42.633Z,1013.65
2022-10-06T02:42:03.656Z,1013.69
2022-10-06T02:42:24.710Z,1013.69
2022-10-06T02:42:45.773Z,1013.71
2022-10-06T02:43:06.807Z,1013.71
2022-10-06T02:43:27.861Z,1013.69
2022-10-06T02:43:48.926Z,1013.69
2022-10-06T02:44:09.993Z,1013.69
2022-10-06T02:44:31.042Z,1013.69
2022-10-06T02:44:52.098Z,1013.71
2022-10-06T02:45:13.158Z,1013.75
2022-10-06T02:45:34.194Z,1013.75
2022-10-06T02:45:55.244Z,1013.77
2022-10-06T02:46:16.351Z,1013.79
2022-10-06T02:46:37.453Z,1013.77
2022-10-06T02:46:58.518Z,1013.79
2022-10-06T02:47:19.554Z,1013.79
2022-10-06T02:47:40.607Z,1013.79
2022-10-06T02:48:01.649Z,1013.77
2022-10-06T02:48:22.708Z,1013.77
2022-10-06T02:48:43.755Z,1013.79
2022-10-06T02:49:04.824Z,1013.79
2022-10-06T02:49:25.867Z,1013.81
2022-10-06T02:49:46.920Z,1013.83
2022-10-06T02:50:07.974Z,1013.83
2022-10-06T02:50:29.020Z,1013.85
2022-10-06T02:50:50.054Z,1013.87
2022-10-06T02:51:11.103Z,1013.85
2022-10-06T02:51:32.146Z,1013.87
2022-10-06T02:51:53.206Z,1013.87
2022-10-06T02:52:14.265Z,1013.93
2022-10-06T02:52:35.320Z,1013.93
2022-10-06T02:52:56.378Z,1013.91
2022-10-06T02:53:17.427Z,1013.93
2022-10-06T02:53:38.472Z,1013.89
2022-10-06T02:53:59.526Z,1013.93
2022-10-06T02:54:20.588Z,1013.87
2022-10-06T02:54:41.645Z,1013.89
2022-10-06T02:55:02.687Z,1013.89
2022-10-06T02:55:23.727Z,1013.89
2022-10-06T02:55:44.764Z,1013.91
2022-10-06T02:56:05.826Z,1013.95
2022-10-06T02:56:26.908Z,1013.95
2022-10-06T02:56:47.940Z,1013.93
2022-10-06T02:57:08.981Z,1013.93
2022-10-06T02:57:30.028Z,1013.93
2022-10-06T02:57:51.088Z,1013.97
2022-10-06T02:58:12.134Z,1013.93
2022-10-06T02:58:33.215Z,1013.93
2022-10-06T02:58:54.227Z,1013.95
2022-10-06T02:59:15.293Z,1013.95
2022-10-06T02:59:36.384Z,1013.95
2022-10-06T02:59:57.453Z,1013.97
2022-10-06T03:00:18.507Z,1013.99
2022-10-06T03:00:39.541Z,1013.97
2022-10-06T03:01:00.601Z,1013.99
2022-10-06T03:01:21.734Z,1013.99
2022-10-06T03:01:42.896Z,1013.99
2022-10-06T03:02:04.065Z,1013.99
2022-10-06T03:02:25.258Z,1013.99
2022-10-06T03:02:46.496Z,1013.99
2022-10-06T03:03:07.649Z,1013.99
2022-10-06T03:03:28.715Z,1013.99
2022-10-06T03:03:49.777Z,1013.99
2022-10-06T03:04:10.820Z,1014.01
2022-10-06T03:04:31.888Z,1014.03
2022-10-06T03:04:53.063Z,1014.04
2022-10-06T03:05:14.106Z,1014.03
2022-10-06T03:05:35.161Z,1014.06
2022-10-06T03:05:56.219Z,1014.06
2022-10-06T03:06:17.270Z,1014.06
2022-10-06T03:06:38.334Z,1014.03
2022-10-06T03:06:59.380Z,1014.04
2022-10-06T03:07:20.447Z,1014.04
2022-10-06T03:07:41.478Z,1014.03
2022-10-06T03:08:02.521Z,1014.04
2022-10-06T03:08:23.602Z,1014.03
2022-10-06T03:08:44.689Z,1014.04
2022-10-06T03:09:05.751Z,1014.06
2022-10-06T03:09:26.808Z,1014.06
2022-10-06T03:09:47.852Z,1014.06
2022-10-06T03:10:08.931Z,1014.04
2022-10-06T03:10:29.969Z,1014.04
2022-10-06T03:10:51.033Z,1014.08
2022-10-06T03:11:12.092Z,1014.08
2022-10-06T03:11:33.145Z,1014.10
2022-10-06T03:11:54.235Z,1014.04
2022-10-06T03:12:15.281Z,1014.12
2022-10-06T03:12:36.316Z,1014.14
2022-10-06T03:12:57.384Z,1014.14
2022-10-06T03:13:18.431Z,1014.12
2022-10-06T03:13:39.471Z,1014.12
2022-10-06T03:14:00.546Z,1014.16
2022-10-06T03:14:22.298Z,1014.12
2022-10-06T03:14:43.358Z,1014.18
2022-10-06T03:15:04.411Z,1014.16
2022-10-06T03:15:25.465Z,1014.18
2022-10-06T03:15:46.726Z,1014.18
2022-10-06T03:16:07.842Z,1014.20
2022-10-06T03:16:28.903Z,1014.20
2022-10-06T03:16:49.915Z,1014.18
2022-10-06T03:17:10.957Z,1014.22
2022-10-06T03:17:32.007Z,1014.22
2022-10-06T03:17:53.063Z,1014.22
2022-10-06T03:18:14.119Z,1014.18
2022-10-06T03:18:35.180Z,1014.16
2022-10-06T03:18:56.227Z,1014.18
2022-10-06T03:19:17.296Z,1014.20
2022-10-06T03:19:38.354Z,1014.20
2022-10-06T03:19:59.411Z,1014.20
2022-10-06T03:20:20.468Z,1014.22
2022-10-06T03:20:41.515Z,1014.24
2022-10-06T03:21:02.579Z,1014.22
2022-10-06T03:21:23.646Z,1014.26
2022-10-06T03:21:44.687Z,1014.24
2022-10-06T03:22:05.735Z,1014.26
2022-10-06T03:22:26.785Z,1014.26
2022-10-06T03:22:47.838Z,1014.28
2022-10-06T03:23:13.312Z,1014.28
2022-10-06T03:23:34.603Z,1014.32
2022-10-06T03:23:55.653Z,1014.34
2022-10-06T03:24:16.713Z,1014.36
2022-10-06T03:24:37.776Z,1014.36
2022-10-06T03:24:58.836Z,1014.38
2022-10-06T03:25:19.886Z,1014.40
2022-10-06T03:25:40.941Z,1014.40
2022-10-06T03:26:02.003Z,1014.44
2022-10-06T03:26:23.052Z,1014.44
2022-10-06T03:26:44.102Z,1014.42
2022-10-06T03:27:05.173Z,1014.44
2022-10-06T03:27:26.202Z,1014.44
2022-10-06T03:27:47.252Z,1014.46
2022-10-06T03:28:08.333Z,1014.44
2022-10-06T03:28:29.804Z,1014.46
2022-10-06T03:28:50.964Z,1014.44
2022-10-06T03:29:12.193Z,1014.48
2022-10-06T03:29:33.239Z,1014.46
2022-10-06T03:29:54.407Z,1014.48
2022-10-06T03:30:15.457Z,1014.48
2022-10-06T03:30:36.507Z,1014.50
2022-10-06T03:30:57.630Z,1014.53
2022-10-06T03:31:18.735Z,1014.53
2022-10-06T03:31:39.953Z,1014.55
2022-10-06T03:32:01.072Z,1014.55
2022-10-06T03:32:22.122Z,1014.57
2022-10-06T03:32:43.176Z,1014.57
2022-10-06T03:33:04.230Z,1014.57
2022-10-06T03:33:25.268Z,1014.57
2022-10-06T03:33:46.346Z,1014.59
2022-10-06T03:34:07.382Z,1014.59
2022-10-06T03:34:28.436Z,1014.57
2022-10-06T03:34:49.547Z,1014.59
2022-10-06T03:35:10.894Z,1014.55
2022-10-06T03:35:32.021Z,1014.55
2022-10-06T03:35:53.070Z,1014.55
2022-10-06T03:36:14.140Z,1014.57
2022-10-06T03:36:35.207Z,1014.51
2022-10-06T03:36:56.248Z,1014.55
2022-10-06T03:37:17.300Z,1014.53
2022-10-06T03:37:38.352Z,1014.53
2022-10-06T03:37:59.400Z,1014.57
2022-10-06T03:38:20.457Z,1014.57
2022-10-06T03:38:41.513Z,1014.55
2022-10-06T03:39:02.598Z,1014.55
2022-10-06T03:39:23.625Z,1014.57
2022-10-06T03:39:44.675Z,1014.55
2022-10-06T03:40:05.722Z,1014.57
2022-10-06T03:40:26.801Z,1014.55
2022-10-06T03:40:47.868Z,1014.55
2022-10-06T03:41:08.920Z,1014.55
2022-10-06T03:41:29.960Z,1014.55
2022-10-06T03:41:51.007Z,1014.55
2022-10-06T03:42:12.077Z,1014.57
2022-10-06T03:42:33.118Z,1014.57
2022-10-06T03:42:54.172Z,1014.59
2022-10-06T03:43:15.225Z,1014.61
2022-10-06T03:43:36.275Z,1014.63
2022-10-06T03:43:57.324Z,1014.67
2022-10-06T03:44:18.396Z,1014.65
2022-10-06T03:44:39.448Z,1014.69
2022-10-06T03:45:00.515Z,1014.69
2022-10-06T03:45:21.558Z,1014.69
2022-10-06T03:45:42.614Z,1014.67
2022-10-06T03:46:03.663Z,1014.73
2022-10-06T03:46:24.758Z,1014.73
2022-10-06T03:46:45.801Z,1014.73
2022-10-06T03:47:06.876Z,1014.71
2022-10-06T03:47:27.961Z,1014.71
2022-10-06T03:47:49.020Z,1014.71
2022-10-06T03:48:10.077Z,1014.71
2022-10-06T03:48:31.730Z,1014.71
2022-10-06T03:48:52.883Z,1014.73
2022-10-06T03:49:13.935Z,1014.71
2022-10-06T03:49:34.990Z,1014.69
2022-10-06T03:49:56.037Z,1014.69
2022-10-06T03:50:17.207Z,1014.71
2022-10-06T03:50:38.257Z,1014.71
2022-10-06T03:50:59.301Z,1014.71
2022-10-06T03:51:20.355Z,1014.73
2022-10-06T03:51:41.423Z,1014.75
2022-10-06T03:52:02.476Z,1014.79
2022-10-06T03:52:26.029Z,1014.75
2022-10-06T03:52:47.248Z,1014.81
2022-10-06T03:53:08.318Z,1014.79
2022-10-06T03:53:29.368Z,1014.83
2022-10-06T03:53:50.422Z,1014.87
2022-10-06T03:54:11.475Z,1014.85
2022-10-06T03:54:32.524Z,1014.89
2022-10-06T03:54:53.695Z,1014.89
2022-10-06T03:55:14.746Z,1014.89
2022-10-06T03:55:35.797Z,1014.89
2022-10-06T03:55:56.861Z,1014.89
2022-10-06T03:56:17.928Z,1014.85
2022-10-06T03:56:39.087Z,1014.87
2022-10-06T03:57:00.135Z,1014.85
2022-10-06T03:57:21.202Z,1014.85
2022-10-06T03:57:42.235Z,1014.87
2022-10-06T03:58:03.279Z,1014.85
2022-10-06T03:58:24.328Z,1014.87
2022-10-06T03:58:45.382Z,1014.87
2022-10-06T03:59:06.442Z,1014.89
2022-10-06T03:59:27.498Z,1014.95
2022-10-06T03:59:48.544Z,1014.95
2022-10-06T04:00:09.616Z,1014.95
2022-10-06T04:00:30.668Z,1014.97
2022-10-06T04:00:51.802Z,1014.97
2022-10-06T04:01:12.949Z,1014.98
2022-10-06T04:01:34.050Z,1015.00
2022-10-06T04:01:55.112Z,1015.00
2022-10-06T04:02:16.190Z,1015.02
2022-10-06T04:02:37.214Z,1015.04
2022-10-06T04:02:58.277Z,1015.04
2022-10-06T04:03:19.319Z,1015.04
2022-10-06T04:03:40.369Z,1015.00
2022-10-06T04:04:01.421Z,1015.00
2022-10-06T04:04:22.486Z,1015.02
2022-10-06T04:04:43.532Z,1015.00
2022-10-06T04:05:04.594Z,1015.02
2022-10-06T04:05:25.639Z,1015.00
2022-10-06T04:05:46.696Z,1015.04
2022-10-06T04:06:07.755Z,1015.02
2022-10-06T04:06:28.805Z,1015.04
2022-10-06T04:06:49.864Z,1015.04
2022-10-06T04:07:10.918Z,1015.04
2022-10-06T04:07:31.981Z,1015.04
2022-10-06T04:07:53.044Z,1015.02
2022-10-06T04:08:14.099Z,1014.98
2022-10-06T04:08:35.171Z,1015.00
2022-10-06T04:08:56.224Z,1015.00
2022-10-06T04:09:17.281Z,1015.00
2022-10-06T04:09:38.347Z,1015.02
2022-10-06T04:09:59.404Z,1015.02
2022-10-06T04:10:20.465Z,1015.02
2022-10-06T04:10:41.525Z,1015.06
2022-10-06T04:11:02.581Z,1015.04
2022-10-06T04:11:23.640Z,1015.04
2022-10-06T04:11:44.739Z,1015.04
2022-10-06T04:12:05.776Z,1015.04
2022-10-06T04:12:26.846Z,1015.06
2022-10-06T04:12:47.878Z,1015.04
2022-10-06T04:13:08.939Z,1015.06
2022-10-06T04:13:29.990Z,1015.06
2022-10-06T04:13:51.038Z,1015.06
2022-10-06T04:14:12.103Z,1015.06
2022-10-06T04:14:33.155Z,1015.06
2022-10-06T04:14:57.879Z,1015.08
2022-10-06T04:15:21.297Z,1015.08
2022-10-06T04:15:42.365Z,1015.08